createdAt,value
2019-04-05T00:00:22.532Z,65.80
2019-04-05T00:02:49.127Z,67.37
2019-04-05T00:05:16.124Z,74.57
2019-04-05T00:07:42.977Z,67.23
2019-04-05T00:10:10.834Z,71.60
2019-04-05T00:12:37.724Z,66.80
2019-04-05T00:15:14.604Z,69.20
2019-04-05T00:17:33.227Z,69.43
2019-04-05T00:20:03.290Z,68.23
2019-04-05T00:22:29.858Z,77.07
2019-04-05T00:24:56.458Z,78.67
2019-04-05T00:27:22.988Z,68.10
2019-04-05T00:29:56.228Z,61.67
2019-04-05T00:32:22.749Z,70.63
2019-04-05T00:34:50.510Z,71.20
2019-04-05T00:37:17.718Z,69.97
2019-04-05T00:39:44.285Z,75.17
2019-04-05T00:42:12.225Z,71.50
2019-04-05T00:44:38.732Z,71.63
2019-04-05T00:47:05.338Z,82.13
2019-04-05T00:49:32.001Z,82.07
2019-04-05T00:52:00.030Z,80.03
2019-04-05T00:54:26.893Z,75.40
2019-04-05T00:56:53.563Z,71.13
2019-04-05T00:59:20.642Z,69.67
2019-04-05T01:01:48.640Z,66.57
2019-04-05T01:04:15.364Z,60.33
2019-04-05T01:06:41.936Z,64.83
2019-04-05T01:09:08.609Z,68.53
2019-04-05T01:11:36.256Z,71.53
2019-04-05T01:14:03.134Z,77.90
2019-04-05T01:16:29.743Z,84.67
2019-04-05T01:18:56.619Z,74.67
2019-04-05T01:21:23.979Z,80.07
2019-04-05T01:23:51.837Z,73.37
2019-04-05T01:26:18.490Z,73.63
2019-04-05T01:28:50.831Z,81.03
2019-04-05T01:31:17.349Z,73.57
2019-04-05T01:33:43.996Z,74.87
2019-04-05T01:36:10.522Z,75.57
2019-04-05T01:38:37.247Z,70.43
2019-04-05T01:41:03.825Z,75.80
2019-04-05T01:43:30.733Z,76.97
2019-04-05T01:45:58.204Z,75.43
2019-04-05T01:48:24.976Z,68.73
2019-04-05T01:50:51.968Z,68.17
2019-04-05T01:53:18.480Z,72.00
2019-04-05T01:55:45.118Z,69.00
2019-04-05T01:58:11.703Z,62.13
2019-04-05T02:00:45.845Z,64.00
2019-04-05T02:03:12.785Z,58.47
2019-04-05T02:05:39.481Z,65.17
2019-04-05T02:08:06.144Z,61.30
2019-04-05T02:10:32.808Z,59.53
2019-04-05T02:12:59.468Z,62.43
2019-04-05T02:15:28.344Z,62.30
2019-04-05T02:17:55.531Z,56.97
2019-04-05T02:20:25.585Z,56.93
2019-04-05T02:22:52.854Z,54.63
2019-04-05T02:25:19.738Z,56.63
2019-04-05T02:27:46.390Z,53.63
2019-04-05T02:30:14.474Z,59.27
2019-04-05T02:32:41.153Z,59.83
2019-04-05T02:35:07.868Z,54.67
2019-04-05T02:37:34.567Z,53.40
2019-04-05T02:40:01.339Z,54.13
2019-04-05T02:42:28.346Z,51.20
2019-04-05T02:44:55.481Z,54.97
2019-04-05T02:47:24.463Z,49.57
2019-04-05T02:49:53.965Z,55.97
2019-04-05T02:52:25.381Z,49.50
2019-04-05T02:54:51.083Z,54.50
2019-04-05T02:57:17.829Z,61.23
2019-04-05T02:59:44.787Z,50.83
2019-04-05T03:02:13.919Z,52.57
2019-04-05T03:04:40.586Z,48.60
2019-04-05T03:07:07.454Z,52.57
2019-04-05T03:09:34.294Z,55.70
2019-04-05T03:12:01.280Z,51.90
2019-04-05T03:14:28.541Z,50.73
2019-04-05T03:16:55.072Z,52.37
2019-04-05T03:19:28.506Z,55.50
2019-04-05T03:22:00.788Z,51.63
2019-04-05T03:24:28.949Z,51.43
2019-04-05T03:27:01.873Z,57.80
2019-04-05T03:29:28.655Z,63.97
2019-04-05T03:31:55.641Z,56.03
2019-04-05T03:34:22.309Z,56.07
2019-04-05T03:36:57.610Z,47.97
2019-04-05T03:39:24.268Z,52.03
2019-04-05T03:41:52.054Z,48.90
2019-04-05T03:44:22.812Z,51.27
2019-04-05T03:46:56.799Z,55.73
2019-04-05T03:49:23.633Z,43.50
2019-04-05T03:51:51.053Z,53.20
2019-04-05T03:54:17.662Z,54.20
2019-04-05T03:56:44.330Z,53.93
2019-04-05T03:59:11.213Z,51.43
2019-04-05T04:01:38.265Z,54.83
2019-04-05T04:04:08.958Z,50.03
2019-04-05T04:06:35.766Z,58.13
2019-04-05T04:09:03.832Z,46.43
2019-04-05T04:11:30.671Z,56.00
2019-04-05T04:13:57.939Z,53.87
2019-04-05T04:16:24.985Z,52.87
2019-04-05T04:18:54.160Z,49.73
2019-04-05T04:22:01.246Z,50.90
2019-04-05T04:24:28.300Z,51.87
2019-04-05T04:26:55.473Z,50.00
2019-04-05T04:29:23.658Z,52.97
2019-04-05T04:31:50.142Z,56.20
2019-04-05T04:34:16.939Z,54.07
2019-04-05T04:36:43.652Z,49.87
2019-04-05T04:39:10.359Z,51.70
2019-04-05T04:41:37.010Z,53.03
2019-04-05T04:44:03.627Z,53.40
2019-04-05T04:46:31.405Z,56.00
2019-04-05T04:48:57.976Z,58.33
2019-04-05T04:51:25.023Z,58.17
2019-04-05T04:53:51.734Z,51.37
2019-04-05T04:56:19.417Z,52.90
2019-04-05T04:58:46.451Z,49.60
2019-04-05T05:01:13.147Z,48.03
2019-04-05T05:03:39.879Z,54.10
2019-04-05T05:06:11.565Z,48.07
2019-04-05T05:08:38.711Z,50.90
2019-04-05T05:11:14.346Z,58.33
2019-04-05T05:13:34.666Z,58.27
2019-04-05T05:16:01.791Z,53.23
2019-04-05T05:18:29.932Z,55.63
2019-04-05T05:20:56.601Z,49.00
2019-04-05T05:23:23.769Z,56.47
2019-04-05T05:25:50.695Z,50.57
2019-04-05T05:28:17.293Z,52.93
2019-04-05T05:30:44.019Z,50.83
2019-04-05T05:33:10.893Z,55.60
2019-04-05T05:35:37.561Z,50.73
2019-04-05T05:38:04.340Z,45.87
2019-04-05T05:40:35.536Z,58.10
2019-04-05T05:43:02.713Z,61.17
2019-04-05T05:45:29.389Z,51.63
2019-04-05T05:47:56.099Z,53.77
2019-04-05T05:50:22.868Z,51.50
2019-04-05T05:52:49.489Z,50.13
2019-04-05T05:55:16.280Z,49.40
2019-04-05T05:57:42.773Z,54.47
2019-04-05T06:00:10.672Z,59.53
2019-04-05T06:02:38.758Z,60.17
2019-04-05T06:05:06.389Z,55.73
2019-04-05T06:07:33.177Z,45.50
2019-04-05T06:09:59.706Z,54.33
2019-04-05T06:12:26.579Z,55.10
2019-04-05T06:14:53.114Z,60.73
2019-04-05T06:17:19.911Z,57.03
2019-04-05T06:19:47.558Z,47.23
2019-04-05T06:22:14.156Z,49.37
2019-04-05T06:24:40.897Z,50.67
2019-04-05T06:27:07.459Z,48.97
2019-04-05T06:29:34.140Z,48.80
2019-04-05T06:32:00.766Z,51.23
2019-04-05T06:34:28.434Z,45.77
2019-04-05T06:36:55.314Z,53.43
2019-04-05T06:39:21.850Z,47.97
2019-04-05T06:41:49.495Z,46.23
2019-04-05T06:44:18.536Z,41.80
2019-04-05T06:46:45.119Z,47.70
2019-04-05T06:49:11.757Z,46.47
2019-04-05T06:51:40.272Z,46.63
2019-04-05T06:54:06.974Z,45.07
2019-04-05T06:56:34.987Z,43.63
2019-04-05T06:59:04.658Z,42.30
2019-04-05T07:01:36.930Z,43.47
2019-04-05T07:04:03.972Z,50.50
2019-04-05T07:06:30.530Z,45.97
2019-04-05T07:08:57.228Z,48.10
2019-04-05T07:11:26.269Z,48.97
2019-04-05T07:13:55.563Z,49.33
2019-04-05T07:16:22.322Z,49.20
2019-04-05T07:18:48.926Z,51.73
2019-04-05T07:21:17.353Z,47.23
2019-04-05T07:23:44.889Z,53.97
2019-04-05T07:26:12.624Z,52.30
2019-04-05T07:28:39.184Z,49.13
2019-04-05T07:31:05.893Z,53.80
2019-04-05T07:33:32.558Z,54.53
2019-04-05T07:35:59.749Z,43.00
2019-04-05T07:38:26.427Z,42.50
2019-04-05T07:40:52.981Z,37.33
2019-04-05T07:43:22.069Z,39.20
2019-04-05T07:45:49.078Z,49.53
2019-04-05T07:48:16.182Z,44.63
2019-04-05T07:50:44.103Z,48.73
2019-04-05T07:53:10.629Z,42.33
2019-04-05T07:55:38.374Z,35.57
2019-04-05T07:58:05.476Z,41.37
2019-04-05T08:00:44.971Z,45.20
2019-04-05T08:03:11.603Z,33.53
2019-04-05T08:05:38.496Z,38.83
2019-04-05T08:08:07.183Z,45.03
2019-04-05T08:10:35.861Z,40.97
2019-04-05T08:13:02.845Z,50.30
2019-04-05T08:15:29.545Z,40.43
2019-04-05T08:17:56.113Z,38.07
2019-04-05T08:20:25.144Z,40.97
2019-04-05T08:22:54.128Z,39.37
2019-04-05T08:25:20.989Z,36.03
2019-04-05T08:27:47.778Z,36.13
2019-04-05T08:30:14.334Z,40.43
2019-04-05T08:32:43.675Z,39.20
2019-04-05T08:35:11.655Z,36.93
2019-04-05T08:37:46.981Z,37.93
2019-04-05T08:40:26.365Z,39.23
2019-04-05T08:42:53.161Z,39.80
2019-04-05T08:45:20.961Z,34.17
2019-04-05T08:47:49.027Z,43.40
2019-04-05T08:50:15.915Z,33.10
2019-04-05T08:52:42.809Z,33.67
2019-04-05T08:55:10.781Z,35.60
2019-04-05T08:57:37.727Z,32.00
2019-04-05T09:00:04.623Z,31.80
2019-04-05T09:02:31.531Z,41.40
2019-04-05T09:04:58.168Z,37.60
2019-04-05T09:07:25.228Z,35.07
2019-04-05T09:09:53.297Z,37.17
2019-04-05T09:12:19.939Z,33.70
2019-04-05T09:14:46.722Z,35.87
2019-04-05T09:17:13.542Z,38.20
2019-04-05T09:19:40.418Z,35.90
2019-04-05T09:22:07.047Z,36.47
2019-04-05T09:24:33.610Z,35.43
2019-04-05T09:27:00.346Z,39.10
2019-04-05T09:29:26.949Z,37.80
2019-04-05T09:31:53.754Z,38.10
2019-04-05T09:34:23.124Z,37.53
2019-04-05T09:36:49.055Z,39.60
2019-04-05T09:39:16.727Z,35.50
2019-04-05T09:41:43.413Z,34.10
2019-04-05T09:44:09.975Z,31.17
2019-04-05T09:46:46.848Z,37.07
2019-04-05T09:49:06.654Z,40.23
2019-04-05T09:51:33.276Z,31.83
2019-04-05T09:54:00.173Z,35.97
2019-04-05T09:56:26.741Z,44.93
2019-04-05T09:58:53.427Z,35.47
2019-04-05T10:01:20.377Z,37.67
2019-04-05T10:03:47.261Z,34.43
2019-04-05T10:06:13.862Z,43.57
2019-04-05T10:08:40.479Z,32.37
2019-04-05T10:11:10.297Z,34.33
2019-04-05T10:13:36.834Z,33.90
2019-04-05T10:16:03.520Z,34.67
2019-04-05T10:18:30.140Z,33.73
2019-04-05T10:20:56.746Z,33.87
2019-04-05T10:23:23.356Z,36.40
2019-04-05T10:25:50.057Z,30.07
2019-04-05T10:28:38.116Z,33.47
2019-04-05T10:31:04.932Z,33.87
2019-04-05T10:33:31.732Z,33.43
2019-04-05T10:35:58.589Z,32.03
2019-04-05T10:38:25.150Z,29.13
2019-04-05T10:40:52.001Z,32.53
2019-04-05T10:43:18.577Z,30.43
2019-04-05T10:45:45.668Z,30.07
2019-04-05T10:48:12.594Z,31.83
2019-04-05T10:50:39.415Z,28.60
2019-04-05T10:53:18.157Z,31.63
2019-04-05T10:55:44.977Z,33.43
2019-04-05T10:58:11.884Z,36.00
2019-04-05T11:00:38.740Z,32.87
2019-04-05T11:03:05.280Z,33.47
2019-04-05T11:05:32.112Z,31.63
2019-04-05T11:07:59.511Z,30.57
2019-04-05T11:10:26.214Z,28.00
2019-04-05T11:12:52.793Z,35.03
2019-04-05T11:15:20.071Z,33.17
2019-04-05T11:17:46.696Z,31.07
2019-04-05T11:20:22.173Z,29.77
2019-04-05T11:22:50.177Z,30.10
2019-04-05T11:25:20.411Z,29.70
2019-04-05T11:27:46.067Z,28.30
2019-04-05T11:30:18.254Z,28.83
2019-04-05T11:32:45.501Z,28.87
2019-04-05T11:35:14.947Z,28.87
2019-04-05T11:37:40.658Z,30.43
2019-04-05T11:40:08.252Z,32.07
2019-04-05T11:42:36.562Z,33.40
2019-04-05T11:45:03.819Z,30.03
2019-04-05T11:47:30.750Z,28.00
2019-04-05T11:49:59.030Z,28.43
2019-04-05T11:52:25.655Z,31.20
2019-04-05T11:54:52.178Z,33.10
2019-04-05T11:57:19.035Z,37.10
2019-04-05T11:59:48.578Z,33.63
2019-04-05T12:02:22.632Z,35.97
2019-04-05T12:04:49.361Z,39.30
2019-04-05T12:07:15.914Z,34.90
2019-04-05T12:09:42.645Z,32.13
2019-04-05T12:12:11.689Z,34.20
2019-04-05T12:14:38.920Z,32.57
2019-04-05T12:17:09.636Z,35.03
2019-04-05T12:19:38.156Z,30.20
2019-04-05T12:22:05.861Z,38.77
2019-04-05T12:24:33.521Z,35.70
2019-04-05T12:27:00.262Z,35.67
2019-04-05T12:29:26.801Z,34.30
2019-04-05T12:31:53.958Z,34.47
2019-04-05T12:34:22.422Z,34.33
2019-04-05T12:36:50.530Z,36.67
2019-04-05T12:39:18.843Z,33.53
2019-04-05T12:41:45.792Z,35.50
2019-04-05T12:44:15.143Z,31.90
2019-04-05T12:46:40.885Z,34.87
2019-04-05T12:49:07.515Z,29.47
2019-04-05T12:51:35.872Z,32.57
2019-04-05T12:54:02.480Z,32.03
2019-04-05T12:56:29.072Z,34.60
2019-04-05T12:58:56.716Z,34.47
2019-04-05T13:01:23.654Z,34.33
2019-04-05T13:03:51.373Z,32.50
2019-04-05T13:06:19.847Z,37.17
2019-04-05T13:08:47.550Z,34.83
2019-04-05T13:11:14.229Z,35.40
2019-04-05T13:13:40.926Z,40.17
2019-04-05T13:16:09.806Z,32.47
2019-04-05T13:18:36.023Z,33.30
2019-04-05T13:21:14.286Z,36.43
2019-04-05T13:23:33.817Z,33.97
2019-04-05T13:26:01.484Z,36.00
2019-04-05T13:28:28.445Z,33.13
2019-04-05T13:30:55.686Z,31.73
2019-04-05T13:33:23.519Z,29.63
2019-04-05T13:35:50.772Z,33.37
2019-04-05T13:38:17.446Z,32.17
2019-04-05T13:40:44.158Z,32.73
2019-04-05T13:43:10.843Z,35.70
2019-04-05T13:45:39.131Z,32.80
2019-04-05T13:48:09.008Z,32.30
2019-04-05T13:50:35.329Z,31.60
2019-04-05T13:53:01.893Z,30.53
2019-04-05T13:55:28.693Z,31.70
2019-04-05T13:57:55.354Z,32.30
2019-04-05T14:00:22.145Z,31.60
2019-04-05T14:02:50.756Z,30.10
2019-04-05T14:05:17.575Z,33.23
2019-04-05T14:07:46.685Z,34.50
2019-04-05T14:10:13.855Z,32.37
2019-04-05T14:12:41.053Z,31.63
2019-04-05T14:15:10.854Z,33.27
2019-04-05T14:17:36.621Z,34.40
2019-04-05T14:20:04.749Z,34.17
2019-04-05T14:22:31.756Z,37.83
2019-04-05T14:25:00.058Z,37.73
2019-04-05T14:27:26.962Z,38.70
2019-04-05T14:29:53.574Z,41.60
2019-04-05T14:32:21.925Z,39.83
2019-04-05T14:34:48.918Z,39.73
2019-04-05T14:37:15.973Z,42.40
2019-04-05T14:39:48.867Z,41.70
2019-04-05T14:42:16.359Z,41.07
2019-04-05T14:44:42.948Z,38.47
2019-04-05T14:47:10.738Z,42.10
2019-04-05T14:49:40.550Z,40.63
2019-04-05T14:52:07.539Z,39.80
2019-04-05T14:54:34.329Z,39.63
2019-04-05T14:57:05.543Z,37.40
2019-04-05T14:59:37.644Z,37.47
2019-04-05T15:02:05.664Z,38.17
2019-04-05T15:04:34.277Z,37.23
2019-04-05T15:07:01.730Z,39.10
2019-04-05T15:09:28.518Z,40.13
2019-04-05T15:11:56.460Z,41.93
2019-04-05T15:14:25.754Z,38.57
2019-04-05T15:16:54.379Z,39.90
2019-04-05T15:19:21.636Z,41.00
2019-04-05T15:21:48.520Z,39.93
2019-04-05T15:24:17.193Z,42.03
2019-04-05T15:26:43.814Z,42.40
2019-04-05T15:29:13.948Z,43.03
2019-04-05T15:31:40.963Z,39.93
2019-04-05T15:34:07.616Z,44.27
2019-04-05T15:36:34.222Z,46.43
2019-04-05T15:39:01.615Z,43.57
2019-04-05T15:41:28.794Z,44.60
2019-04-05T15:43:55.939Z,47.53
2019-04-05T15:46:22.789Z,45.23
2019-04-05T15:48:51.520Z,47.37
2019-04-05T15:51:18.019Z,48.87
2019-04-05T15:53:44.906Z,46.77
2019-04-05T15:56:11.825Z,49.30
2019-04-05T15:58:38.415Z,52.20
2019-04-05T16:01:05.118Z,43.53
2019-04-05T16:03:33.026Z,49.27
2019-04-05T16:06:00.926Z,54.43
2019-04-05T16:08:27.820Z,54.80
2019-04-05T16:10:54.508Z,51.67
2019-04-05T16:13:21.073Z,53.83
2019-04-05T16:15:47.756Z,53.93
2019-04-05T16:18:15.969Z,59.47
2019-04-05T16:20:42.839Z,53.60
2019-04-05T16:23:09.861Z,59.77
2019-04-05T16:25:36.521Z,61.80
2019-04-05T16:28:03.590Z,62.00
2019-04-05T16:30:30.190Z,77.50
2019-04-05T16:32:56.933Z,69.13
2019-04-05T16:35:23.520Z,76.03
2019-04-05T16:37:50.276Z,73.47
2019-04-05T16:40:25.473Z,72.27
2019-04-05T16:43:01.894Z,76.23
2019-04-05T16:45:20.910Z,74.93
2019-04-05T16:47:50.370Z,83.50
2019-04-05T16:50:17.211Z,77.93
2019-04-05T16:52:45.479Z,81.97
2019-04-05T16:55:12.174Z,82.13
2019-04-05T16:57:39.107Z,87.10
2019-04-05T17:00:07.120Z,83.83
2019-04-05T17:02:33.710Z,84.23
2019-04-05T17:05:00.281Z,82.23
2019-04-05T17:07:26.926Z,81.97
2019-04-05T17:09:57.676Z,85.03
2019-04-05T17:12:24.241Z,79.97
2019-04-05T17:14:51.025Z,79.37
2019-04-05T17:17:17.586Z,87.63
2019-04-05T17:19:45.163Z,88.47
2019-04-05T17:22:11.792Z,88.87
2019-04-05T17:24:39.347Z,87.93
2019-04-05T17:27:06.238Z,90.17
2019-04-05T17:29:32.766Z,90.77
2019-04-05T17:31:59.679Z,82.43
2019-04-05T17:34:26.404Z,91.77
2019-04-05T17:36:52.920Z,82.43
2019-04-05T17:39:19.507Z,90.70
2019-04-05T17:41:50.375Z,91.20
2019-04-05T17:44:17.287Z,80.30
2019-04-05T17:46:46.045Z,90.57
2019-04-05T17:49:12.787Z,88.30
2019-04-05T17:51:39.507Z,84.57
2019-04-05T17:54:06.414Z,88.10
2019-04-05T17:56:34.450Z,84.33
2019-04-05T17:59:01.515Z,91.93
2019-04-05T18:01:28.140Z,93.80
2019-04-05T18:03:55.006Z,82.33
2019-04-05T18:06:21.907Z,78.83
2019-04-05T18:08:48.461Z,82.53
2019-04-05T18:11:15.440Z,84.33
2019-04-05T18:13:42.313Z,84.80
2019-04-05T18:16:09.411Z,83.90
2019-04-05T18:18:35.929Z,87.77
2019-04-05T18:21:02.484Z,82.50
2019-04-05T18:23:29.533Z,77.00
2019-04-05T18:25:56.081Z,80.13
2019-04-05T18:28:22.905Z,91.83
2019-04-05T18:30:49.643Z,85.43
2019-04-05T18:33:16.365Z,80.10
2019-04-05T18:35:43.124Z,83.97
2019-04-05T18:38:10.219Z,77.00
2019-04-05T18:40:40.611Z,80.57
2019-04-05T18:43:10.462Z,85.50
2019-04-05T18:45:40.216Z,81.83
2019-04-05T18:48:09.949Z,87.43
2019-04-05T18:50:40.380Z,81.60
2019-04-05T18:53:07.084Z,83.50
2019-04-05T18:55:33.844Z,76.93
2019-04-05T18:58:00.884Z,80.90
2019-04-05T19:00:30.558Z,88.33
2019-04-05T19:02:59.198Z,91.73
2019-04-05T19:05:29.198Z,93.17
2019-04-05T19:07:57.168Z,88.23
2019-04-05T19:10:36.249Z,90.67
2019-04-05T19:12:59.255Z,87.02
2019-04-05T19:15:25.472Z,89.33
2019-04-05T19:17:52.049Z,92.60
2019-04-05T19:20:19.511Z,82.23
2019-04-05T19:22:46.338Z,89.13
2019-04-05T19:25:13.657Z,85.53
2019-04-05T19:27:40.324Z,83.33
2019-04-05T19:50:01.601Z,94.13
2019-04-05T19:52:29.464Z,87.93
2019-04-05T19:54:57.130Z,88.43
2019-04-05T19:57:23.807Z,79.90
2019-04-05T19:59:51.280Z,90.57
2019-04-05T20:02:18.962Z,87.10
2019-04-05T20:04:46.214Z,82.47
2019-04-05T20:07:12.928Z,86.20
2019-04-05T20:09:39.527Z,84.73
2019-04-05T20:12:08.214Z,82.63
2019-04-05T20:15:03.956Z,77.53
2019-04-05T20:17:31.815Z,78.03
2019-04-05T20:19:58.348Z,79.10
2019-04-05T20:22:25.218Z,76.43
2019-04-05T20:24:53.109Z,89.60
2019-04-05T20:27:31.017Z,80.43
2019-04-05T20:29:58.704Z,78.27
2019-04-05T20:32:25.207Z,82.27
2019-04-05T20:34:51.697Z,80.63
2019-04-05T20:37:18.374Z,86.03
2019-04-05T20:39:44.965Z,88.13
2019-04-05T20:42:12.562Z,92.90
2019-04-05T20:44:39.138Z,85.30
2019-04-05T20:47:06.676Z,83.63
2019-04-05T20:49:35.436Z,79.20
2019-04-05T20:52:02.492Z,91.00
2019-04-05T20:54:29.282Z,89.60
2019-04-05T20:56:55.847Z,89.30
2019-04-05T20:59:22.415Z,87.10
2019-04-05T21:01:48.980Z,90.83
2019-04-05T21:04:17.589Z,91.53
2019-04-05T21:06:44.077Z,106.53
2019-04-05T21:09:12.634Z,108.07
2019-04-05T21:11:40.525Z,106.77
2019-04-05T21:14:07.691Z,100.87
2019-04-05T21:16:35.488Z,104.40
2019-04-05T21:19:02.024Z,90.43
2019-04-05T21:21:30.636Z,90.47
2019-04-05T21:23:57.602Z,93.53
2019-04-05T21:26:24.563Z,86.17
2019-04-05T21:28:51.235Z,95.20
2019-04-05T21:31:24.798Z,89.40
2019-04-05T21:33:51.682Z,106.93
2019-04-05T21:36:18.236Z,96.10
2019-04-05T21:38:44.837Z,125.37
2019-04-05T21:41:13.206Z,115.07
2019-04-05T21:43:39.832Z,106.90
2019-04-05T21:46:06.564Z,110.90
2019-04-05T21:48:33.252Z,106.70
2019-04-05T21:50:59.765Z,138.50
2019-04-05T21:53:26.299Z,117.53
2019-04-05T21:55:52.840Z,113.87
2019-04-05T21:58:19.387Z,137.30
2019-04-05T22:00:56.780Z,131.63
2019-04-05T22:03:23.739Z,121.37
2019-04-05T22:05:50.279Z,140.60
2019-04-05T22:08:17.198Z,139.57
2019-04-05T22:10:44.951Z,142.40
2019-04-05T22:13:15.723Z,114.27
2019-04-05T22:15:42.232Z,118.30
2019-04-05T22:18:09.801Z,119.93
2019-04-05T22:20:36.323Z,115.33
2019-04-05T22:23:02.808Z,109.07
2019-04-05T22:25:30.986Z,107.20
2019-04-05T22:27:57.515Z,106.03
2019-04-05T22:30:24.710Z,101.03
2019-04-05T22:32:51.340Z,104.57
2019-04-05T22:35:18.451Z,105.53
2019-04-05T22:37:48.309Z,107.13
2019-04-05T22:40:15.237Z,115.60
2019-04-05T22:42:41.772Z,100.83
2019-04-05T22:45:08.353Z,131.03
2019-04-05T22:47:34.860Z,107.87
2019-04-05T22:50:02.632Z,106.27
2019-04-05T22:52:31.232Z,88.47
2019-04-05T22:54:57.863Z,93.70
2019-04-05T22:57:24.494Z,114.93
2019-04-05T22:59:51.009Z,109.67
2019-04-05T23:02:17.801Z,112.73
2019-04-05T23:04:44.309Z,104.40
2019-04-05T23:07:10.812Z,111.03
2019-04-05T23:09:37.306Z,121.27
2019-04-05T23:12:10.218Z,105.97
2019-04-05T23:14:37.001Z,132.33
2019-04-05T23:17:04.015Z,145.87
2019-04-05T23:19:30.788Z,127.23
2019-04-05T23:21:57.356Z,131.10
2019-04-05T23:24:23.931Z,154.37
2019-04-05T23:26:50.714Z,179.53
2019-04-05T23:29:17.194Z,181.47
2019-04-05T23:31:44.056Z,186.33
2019-04-05T23:34:10.818Z,207.87
2019-04-05T23:36:37.375Z,183.03
2019-04-05T23:39:05.216Z,165.33
2019-04-05T23:41:32.763Z,155.70
2019-04-05T23:43:59.364Z,159.10
2019-04-05T23:46:25.835Z,147.33
2019-04-05T23:48:56.598Z,154.17
2019-04-05T23:51:23.112Z,150.17
2019-04-05T23:53:49.618Z,154.27
2019-04-05T23:56:16.165Z,146.43
2019-04-05T23:58:42.679Z,147.17
